Time;durP1;ratioP1;P1;durP2;ratioP2;P2;SDS_P1;SDS_P2;PMS_P1;PMS_P2;Temp;Humidity;BMP_temperature;BMP_pressure;BME280_temperature;BME280_humidity;BME280_pressure;Samples;Min_cycle;Max_cycle;Signal;HPM_P1;HPM_P2
2023/04/03 00:00:50;;;;;;;2.70;1.27;;;3.60;99.90;;;;;;5078972;28;20470;-57
2023/04/03 00:03:20;;;;;;;4.70;1.50;;;3.50;99.90;;;;;;5078933;28;20457;-58
2023/04/03 00:05:48;;;;;;;2.63;1.30;;;3.60;99.90;;;;;;5077920;28;20494;-61
2023/04/03 00:08:23;;;;;;;3.20;1.80;;;3.50;99.90;;;;;;5078345;28;20463;-61
2023/04/03 00:10:50;;;;;;;7.07;1.20;;;3.50;99.90;;;;;;5077553;28;20467;-60
2023/04/03 00:13:17;;;;;;;1.50;1.10;;;3.60;99.90;;;;;;5077001;28;20490;-62
2023/04/03 00:15:44;;;;;;;7.90;1.30;;;3.60;99.90;;;;;;5078043;28;20435;-61
2023/04/03 00:18:11;;;;;;;2.57;1.20;;;3.60;99.90;;;;;;5078732;28;20424;-62
2023/04/03 00:20:41;;;;;;;1.73;1.00;;;3.50;99.90;;;;;;5078895;28;20435;-61
2023/04/03 00:23:08;;;;;;;1.80;1.37;;;3.50;99.90;;;;;;5078113;28;20487;-63
2023/04/03 00:25:35;;;;;;;2.17;0.90;;;3.50;99.90;;;;;;5077834;28;20459;-63
2023/04/03 00:28:04;;;;;;;3.53;1.13;;;3.50;99.90;;;;;;5078464;28;20497;-61
2023/04/03 00:30:33;;;;;;;1.10;0.90;;;3.50;99.90;;;;;;5078552;28;20435;-58
2023/04/03 00:33:01;;;;;;;10.47;1.57;;;3.50;99.90;;;;;;5078588;28;20435;-58
2023/04/03 00:35:29;;;;;;;4.10;1.07;;;3.50;99.90;;;;;;5078452;28;20447;-63
2023/04/03 00:37:58;;;;;;;3.63;1.33;;;3.40;99.90;;;;;;5079090;28;20481;-59
2023/04/03 00:40:28;;;;;;;2.30;0.93;;;3.40;99.90;;;;;;5078674;28;20430;-60
2023/04/03 00:42:58;;;;;;;3.40;1.23;;;3.20;99.90;;;;;;5078600;28;20444;-56
2023/04/03 00:45:30;;;;;;;2.37;1.10;;;3.30;99.90;;;;;;5077934;28;20432;-59
2023/04/03 00:48:00;;;;;;;4.13;1.50;;;3.30;99.90;;;;;;5078794;28;20487;-61
2023/04/03 00:50:28;;;;;;;1.20;0.90;;;3.30;99.90;;;;;;5078347;28;20435;-55
2023/04/03 00:52:57;;;;;;;2.03;1.03;;;3.30;99.90;;;;;;5078884;28;20424;-61
2023/04/03 00:55:24;;;;;;;6.10;1.70;;;3.20;99.90;;;;;;5078625;28;20428;-59
2023/04/03 00:57:53;;;;;;;5.23;1.37;;;3.30;99.90;;;;;;5079101;28;20436;-58
2023/04/03 01:00:22;;;;;;;4.63;1.30;;;3.20;99.90;;;;;;5078459;28;20487;-59
2023/04/03 01:02:49;;;;;;;1.43;0.70;;;3.20;99.90;;;;;;5077710;28;20469;-63
2023/04/03 01:05:17;;;;;;;1.77;1.00;;;3.30;99.90;;;;;;5079224;28;20613;-61
2023/04/03 01:07:44;;;;;;;7.47;1.47;;;3.20;99.90;;;;;;5078917;28;20470;-57
2023/04/03 01:10:16;;;;;;;3.13;1.13;;;3.30;99.90;;;;;;5078780;28;20450;-57
2023/04/03 01:12:45;;;;;;;2.23;1.60;;;3.20;99.90;;;;;;5077989;28;20471;-63
2023/04/03 01:15:14;;;;;;;5.80;2.63;;;3.30;99.90;;;;;;5078034;28;20455;-57
2023/04/03 01:17:44;;;;;;;10.47;1.17;;;3.20;99.90;;;;;;5078246;28;20458;-57
2023/04/03 01:20:49;;;;;;;2.67;1.40;;;3.20;99.90;;;;;;5078235;28;20424;-61
2023/04/03 01:23:32;;;;;;;9.30;1.77;;;3.20;99.90;;;;;;5077881;28;20455;-58
2023/04/03 01:26:00;;;;;;;4.00;1.40;;;3.20;99.90;;;;;;5077809;28;20458;-61
2023/04/03 01:28:29;;;;;;;2.60;0.90;;;3.20;99.90;;;;;;5077651;28;20486;-56
2023/04/03 01:31:03;;;;;;;4.93;0.90;;;3.20;99.90;;;;;;5077567;28;20494;-60
2023/04/03 01:33:31;;;;;;;7.07;1.57;;;3.10;99.90;;;;;;5076898;28;20430;-59
2023/04/03 01:35:58;;;;;;;5.00;1.90;;;3.10;99.90;;;;;;5076815;28;20444;-60
2023/04/03 01:38:26;;;;;;;5.97;1.70;;;3.10;99.90;;;;;;5077154;28;20420;-62
2023/04/03 01:40:53;;;;;;;1.47;0.90;;;3.00;99.90;;;;;;5077412;28;20454;-57
2023/04/03 01:43:21;;;;;;;1.27;0.87;;;3.10;99.90;;;;;;5077066;28;20467;-54
2023/04/03 01:45:49;;;;;;;3.37;1.20;;;3.10;99.90;;;;;;5077706;28;20488;-61
2023/04/03 01:48:17;;;;;;;4.60;0.93;;;3.10;99.90;;;;;;5077091;28;20578;-58
2023/04/03 01:50:45;;;;;;;4.30;1.27;;;3.10;99.90;;;;;;5077239;28;20443;-64
2023/04/03 01:53:14;;;;;;;6.70;1.43;;;3.10;99.90;;;;;;5076733;28;20434;-60
2023/04/03 01:55:41;;;;;;;5.47;1.23;;;3.10;99.90;;;;;;5077097;28;20467;-55
2023/04/03 01:58:08;;;;;;;2.90;1.13;;;3.00;99.90;;;;;;5075618;28;20450;-58
2023/04/03 02:00:35;;;;;;;6.00;1.83;;;3.00;99.90;;;;;;5076390;28;20451;-63
2023/04/03 02:03:04;;;;;;;4.13;1.73;;;3.00;99.90;;;;;;5076289;28;20446;-62
2023/04/03 02:05:31;;;;;;;2.50;1.80;;;2.90;99.90;;;;;;5076372;28;20443;-61
2023/04/03 02:08:01;;;;;;;2.47;1.20;;;3.40;99.90;;;;;;5075972;28;20467;-61
2023/04/03 02:10:29;;;;;;;1.30;1.00;;;2.90;99.90;;;;;;5075579;28;20435;-59
2023/04/03 02:12:56;;;;;;;9.00;1.90;;;2.90;99.90;;;;;;5074155;28;20444;-60
2023/04/03 02:15:23;;;;;;;4.27;1.57;;;3.00;99.90;;;;;;5075611;28;20431;-58
2023/04/03 02:17:50;;;;;;;5.37;1.57;;;3.00;99.90;;;;;;5075814;28;20439;-62
2023/04/03 02:20:17;;;;;;;2.23;1.13;;;2.90;99.90;;;;;;5075578;28;20467;-61
2023/04/03 02:22:44;;;;;;;6.90;1.67;;;2.90;99.90;;;;;;5075328;28;20463;-61
2023/04/03 02:25:13;;;;;;;3.00;1.30;;;2.90;99.90;;;;;;5075076;28;20439;-62
2023/04/03 02:27:40;;;;;;;6.40;1.40;;;2.80;99.90;;;;;;5075554;28;20443;-59
2023/04/03 02:30:10;;;;;;;4.13;1.57;;;2.80;99.90;;;;;;5075037;28;20487;-59
2023/04/03 02:32:37;;;;;;;10.63;1.57;;;2.80;99.90;;;;;;5074918;28;20523;-59
2023/04/03 02:35:04;;;;;;;1.97;1.20;;;2.80;99.90;;;;;;5074880;28;20445;-57
2023/04/03 02:37:32;;;;;;;2.90;1.50;;;2.80;99.90;;;;;;5075133;28;20457;-59
2023/04/03 02:40:00;;;;;;;6.10;1.47;;;2.80;99.90;;;;;;5074973;28;20515;-62
2023/04/03 02:42:28;;;;;;;2.73;1.33;;;2.70;99.90;;;;;;5075088;28;20443;-58
2023/04/03 02:44:56;;;;;;;4.77;1.43;;;2.70;99.90;;;;;;5074443;28;20470;-58
2023/04/03 02:47:32;;;;;;;2.10;1.43;;;2.70;99.90;;;;;;5075121;28;20520;-62
2023/04/03 02:49:59;;;;;;;3.33;1.03;;;2.70;99.90;;;;;;5075430;28;20473;-61
2023/04/03 02:52:26;;;;;;;2.13;1.10;;;2.70;99.90;;;;;;5075097;28;20439;-61
2023/04/03 02:54:52;;;;;;;2.20;1.30;;;2.70;99.90;;;;;;5074154;28;20503;-64
2023/04/03 02:57:20;;;;;;;1.87;1.20;;;2.70;99.90;;;;;;5074582;28;20483;-63
2023/04/03 02:59:48;;;;;;;1.90;1.00;;;2.70;99.90;;;;;;5075174;28;20442;-59
2023/04/03 03:02:15;;;;;;;1.63;1.17;;;2.60;99.90;;;;;;5074446;28;20458;-64
2023/04/03 03:04:42;;;;;;;1.57;1.33;;;2.70;99.90;;;;;;5074498;28;20482;-59
2023/04/03 03:07:09;;;;;;;2.17;0.93;;;2.60;99.90;;;;;;5074671;28;20447;-63
2023/04/03 03:09:36;;;;;;;1.07;0.80;;;2.60;99.90;;;;;;5074179;28;20514;-62
2023/04/03 03:12:06;;;;;;;2.70;1.37;;;2.60;99.90;;;;;;5074767;28;20443;-61
2023/04/03 03:14:32;;;;;;;5.70;1.67;;;2.60;99.90;;;;;;5074723;28;20444;-61
2023/04/03 03:17:05;;;;;;;7.40;2.00;;;2.60;99.90;;;;;;5074375;28;20469;-63
2023/04/03 03:19:32;;;;;;;1.30;0.83;;;2.50;99.90;;;;;;5075034;28;20404;-61
2023/04/03 03:21:58;;;;;;;1.90;1.50;;;2.50;99.90;;;;;;5074685;28;20508;-63
2023/04/03 03:24:25;;;;;;;1.67;1.00;;;2.50;99.90;;;;;;5073909;28;20499;-63
2023/04/03 03:26:52;;;;;;;1.93;1.20;;;2.50;99.90;;;;;;5077248;28;20447;-64
2023/04/03 03:29:21;;;;;;;2.70;1.30;;;2.40;99.90;;;;;;5079238;28;20498;-58
2023/04/03 03:31:49;;;;;;;1.63;1.10;;;2.40;99.90;;;;;;5079889;28;20934;-62
2023/04/03 03:34:19;;;;;;;1.77;1.20;;;2.40;99.90;;;;;;5080389;28;20497;-59
2023/04/03 03:36:49;;;;;;;2.67;1.33;;;2.40;99.90;;;;;;5079899;28;20778;-63
2023/04/03 03:39:16;;;;;;;2.77;2.10;;;2.40;99.90;;;;;;5079880;28;20436;-59
2023/04/03 03:41:43;;;;;;;1.50;1.23;;;2.40;99.90;;;;;;5080213;28;20467;-59
2023/04/03 03:44:10;;;;;;;2.33;1.10;;;2.30;99.90;;;;;;5079555;28;20436;-62
2023/04/03 03:46:37;;;;;;;6.10;1.53;;;2.40;99.90;;;;;;5079427;28;20455;-58
2023/04/03 03:49:04;;;;;;;1.40;1.17;;;2.40;99.90;;;;;;5078245;28;20479;-61
2023/04/03 03:51:32;;;;;;;2.47;1.20;;;2.30;99.90;;;;;;5077698;28;20431;-63
2023/04/03 03:54:02;;;;;;;1.30;0.90;;;2.30;99.90;;;;;;5077952;28;20466;-62
2023/04/03 03:56:29;;;;;;;2.37;1.10;;;2.30;99.90;;;;;;5077291;28;20439;-61
2023/04/03 03:58:56;;;;;;;4.80;1.97;;;2.30;99.90;;;;;;5077476;28;20465;-63
2023/04/03 04:01:23;;;;;;;1.80;1.10;;;2.30;99.90;;;;;;5077357;28;20502;-58
2023/04/03 04:03:53;;;;;;;15.27;1.57;;;2.20;99.90;;;;;;5077084;28;20458;-60
2023/04/03 04:06:21;;;;;;;2.50;1.13;;;2.20;99.90;;;;;;5077863;28;20439;-59
2023/04/03 04:08:54;;;;;;;4.83;1.40;;;2.10;99.90;;;;;;5077256;28;20475;-56
2023/04/03 04:11:21;;;;;;;1.37;1.27;;;2.10;99.90;;;;;;5077138;28;20494;-61
2023/04/03 04:13:48;;;;;;;1.53;0.90;;;2.10;99.90;;;;;;5077583;28;20462;-62
2023/04/03 04:16:15;;;;;;;1.10;1.00;;;2.10;99.90;;;;;;5077724;28;20434;-60
2023/04/03 04:18:42;;;;;;;3.13;1.30;;;2.10;99.90;;;;;;5077083;28;20455;-61
2023/04/03 04:21:09;;;;;;;2.50;1.33;;;2.10;99.90;;;;;;5077695;28;20455;-53
2023/04/03 04:23:36;;;;;;;1.40;0.93;;;2.00;99.90;;;;;;5078098;28;20483;-60
2023/04/03 04:26:04;;;;;;;1.20;0.87;;;2.00;99.90;;;;;;5078646;28;20474;-59
2023/04/03 04:28:33;;;;;;;1.37;1.27;;;2.00;99.90;;;;;;5077699;28;20435;-60
2023/04/03 04:31:02;;;;;;;2.37;0.93;;;2.00;99.90;;;;;;5077661;28;20448;-62
2023/04/03 04:33:29;;;;;;;2.63;0.90;;;2.00;99.90;;;;;;5077589;28;20904;-61
2023/04/03 04:35:56;;;;;;;1.67;1.10;;;2.00;99.90;;;;;;5076709;28;20489;-60
2023/04/03 04:38:27;;;;;;;2.40;1.33;;;2.00;99.90;;;;;;5076353;28;20439;-60
2023/04/03 04:40:54;;;;;;;1.47;1.10;;;2.00;99.90;;;;;;5077600;28;20511;-61
2023/04/03 04:43:24;;;;;;;1.30;1.03;;;2.00;99.90;;;;;;5077217;28;20428;-61
2023/04/03 04:46:02;;;;;;;1.90;1.37;;;2.00;99.90;;;;;;5077422;28;20458;-58
2023/04/03 04:48:29;;;;;;;4.20;1.50;;;2.00;99.90;;;;;;5077121;28;20455;-58
2023/04/03 04:50:56;;;;;;;2.43;1.50;;;1.90;99.90;;;;;;5077212;28;20498;-63
2023/04/03 04:53:23;;;;;;;1.33;1.00;;;1.90;99.90;;;;;;5077353;28;20458;-60
2023/04/03 04:55:50;;;;;;;3.03;1.10;;;1.90;99.90;;;;;;5077495;28;20423;-63
2023/04/03 04:58:17;;;;;;;3.57;1.90;;;1.90;99.90;;;;;;5076884;28;20423;-60
2023/04/03 05:00:45;;;;;;;1.50;1.00;;;2.00;99.90;;;;;;5076282;28;20463;-61
2023/04/03 05:03:12;;;;;;;7.70;1.67;;;2.00;99.90;;;;;;5076614;28;20451;-62
2023/04/03 05:18:38;;;;;;;5.03;1.50;;;2.00;99.90;;;;;;5349972;22;20515;-59
2023/04/03 05:21:08;;;;;;;1.00;0.90;;;2.10;99.90;;;;;;5055185;28;20455;-58
2023/04/03 05:23:35;;;;;;;4.80;1.33;;;2.10;99.90;;;;;;5023970;28;20496;-65
2023/04/03 05:26:02;;;;;;;3.60;1.93;;;2.10;99.90;;;;;;5023802;28;20460;-62
2023/04/03 05:28:29;;;;;;;2.50;1.07;;;2.10;99.90;;;;;;5035570;28;20469;-61
2023/04/03 05:30:57;;;;;;;3.00;1.30;;;2.20;99.90;;;;;;5032288;28;20538;-63
2023/04/03 05:33:24;;;;;;;4.03;1.10;;;2.10;99.90;;;;;;5018587;28;20477;-63
2023/04/03 05:35:53;;;;;;;4.83;1.40;;;2.10;99.90;;;;;;5042606;28;20455;-64
2023/04/03 05:38:21;;;;;;;9.70;1.77;;;2.20;99.90;;;;;;5055679;28;20460;-62
2023/04/03 05:40:48;;;;;;;5.57;1.43;;;2.20;99.90;;;;;;5057059;28;20921;-62
2023/04/03 05:43:15;;;;;;;3.57;1.47;;;2.30;99.90;;;;;;5055907;28;20500;-62
2023/04/03 05:45:43;;;;;;;1.77;1.20;;;2.30;99.90;;;;;;5055243;28;20491;-61
2023/04/03 05:48:12;;;;;;;1.73;1.00;;;2.30;99.90;;;;;;5056628;28;20479;-62
2023/04/03 05:50:45;;;;;;;2.53;1.63;;;2.30;99.90;;;;;;5057054;28;20459;-62
2023/04/03 05:53:25;;;;;;;3.83;1.60;;;2.30;99.90;;;;;;5056611;28;20488;-60
2023/04/03 05:55:52;;;;;;;5.83;1.57;;;2.30;99.90;;;;;;5056941;28;20456;-58
2023/04/03 05:58:27;;;;;;;6.10;2.43;;;2.40;99.90;;;;;;5057278;28;20472;-59
2023/04/03 06:00:54;;;;;;;3.60;1.60;;;2.40;99.90;;;;;;5057496;28;20444;-56
2023/04/03 06:03:21;;;;;;;1.10;1.00;;;2.40;99.90;;;;;;5057638;28;20467;-61
2023/04/03 06:05:52;;;;;;;3.63;2.47;;;2.40;99.90;;;;;;5056868;28;20453;-57
2023/04/03 06:08:20;;;;;;;2.87;1.43;;;2.50;99.90;;;;;;5056571;28;20487;-64
2023/04/03 06:10:47;;;;;;;2.70;1.33;;;2.50;99.90;;;;;;5056165;28;20479;-63
2023/04/03 06:13:15;;;;;;;4.90;1.37;;;2.50;99.90;;;;;;5052627;28;20461;-58
2023/04/03 06:15:44;;;;;;;1.97;1.00;;;2.60;99.90;;;;;;5039480;28;20491;-65
2023/04/03 06:18:11;;;;;;;9.80;1.83;;;2.60;99.90;;;;;;5056124;28;20436;-62
2023/04/03 06:20:38;;;;;;;3.20;1.07;;;2.60;99.90;;;;;;5056136;28;20468;-64
2023/04/03 06:23:07;;;;;;;1.53;0.80;;;2.60;99.90;;;;;;5053721;28;20444;-65
2023/04/03 06:25:35;;;;;;;2.73;1.30;;;2.70;99.90;;;;;;5057123;28;20440;-62
2023/04/03 06:28:02;;;;;;;4.77;2.10;;;2.80;99.90;;;;;;5055283;28;20452;-62
2023/04/03 06:30:29;;;;;;;2.63;1.20;;;2.80;99.90;;;;;;5056327;28;20480;-59
2023/04/03 06:32:56;;;;;;;2.70;1.17;;;2.80;99.90;;;;;;5055252;28;20444;-61
2023/04/03 06:35:25;;;;;;;2.60;1.47;;;2.90;99.90;;;;;;5055644;28;20475;-57
2023/04/03 06:37:52;;;;;;;2.70;1.50;;;2.90;99.90;;;;;;5055903;28;20469;-63
2023/04/03 06:40:22;;;;;;;1.60;1.13;;;3.00;99.90;;;;;;5056507;28;20483;-62
2023/04/03 06:42:50;;;;;;;4.00;1.37;;;3.10;99.90;;;;;;5056215;28;20425;-55
2023/04/03 06:45:17;;;;;;;1.50;1.00;;;3.20;99.90;;;;;;5055066;28;20455;-63
2023/04/03 06:47:45;;;;;;;3.00;1.63;;;3.20;99.90;;;;;;5054838;28;20459;-63
2023/04/03 06:50:15;;;;;;;6.53;2.73;;;3.30;99.90;;;;;;5054990;28;20459;-62
2023/04/03 06:52:42;;;;;;;1.50;1.00;;;3.30;99.90;;;;;;5057326;28;20486;-62
2023/04/03 06:55:10;;;;;;;1.33;0.80;;;3.30;99.90;;;;;;5057621;28;20444;-55
2023/04/03 06:57:37;;;;;;;1.53;1.00;;;3.40;99.90;;;;;;5056648;28;20463;-60
2023/04/03 07:00:13;;;;;;;2.33;1.30;;;3.50;99.90;;;;;;5056498;28;20452;-61
2023/04/03 07:02:40;;;;;;;2.17;1.00;;;3.60;99.90;;;;;;5059693;28;20464;-61
2023/04/03 07:05:08;;;;;;;1.00;0.80;;;3.60;99.90;;;;;;5059694;28;20443;-62
2023/04/03 07:07:35;;;;;;;3.93;1.83;;;3.60;99.90;;;;;;5060191;28;20495;-64
2023/04/03 07:10:02;;;;;;;2.80;1.50;;;3.70;99.90;;;;;;5058657;28;20453;-63
2023/04/03 07:12:29;;;;;;;4.30;1.00;;;3.90;99.90;;;;;;5060501;28;20461;-62
2023/04/03 07:14:56;;;;;;;1.37;0.80;;;4.20;99.90;;;;;;5059245;28;20460;-62
2023/04/03 07:17:25;;;;;;;3.50;1.43;;;4.20;99.90;;;;;;5060407;28;20508;-55
2023/04/03 07:19:52;;;;;;;2.93;2.10;;;4.20;99.90;;;;;;5061044;28;20523;-58
2023/04/03 07:22:21;;;;;;;2.33;1.40;;;4.20;99.90;;;;;;5060926;28;20462;-59
2023/04/03 07:24:48;;;;;;;1.87;1.00;;;4.20;99.90;;;;;;5060867;28;20476;-60
2023/04/03 07:27:15;;;;;;;3.17;1.17;;;4.20;99.90;;;;;;5060771;28;20444;-61
2023/04/03 07:29:42;;;;;;;1.67;1.10;;;4.30;99.90;;;;;;5060648;28;20532;-62
2023/04/03 07:32:09;;;;;;;3.47;1.23;;;4.40;99.90;;;;;;5060758;28;20540;-64
2023/04/03 07:34:37;;;;;;;2.50;1.63;;;4.50;99.90;;;;;;5059948;28;20549;-58
2023/04/03 07:37:08;;;;;;;2.07;1.87;;;4.60;99.90;;;;;;5059521;28;20538;-58
2023/04/03 07:39:37;;;;;;;7.20;2.40;;;4.70;99.90;;;;;;5057917;28;20428;-61
2023/04/03 07:42:04;;;;;;;2.13;0.90;;;4.90;99.90;;;;;;5058613;28;20524;-59
2023/04/03 07:44:31;;;;;;;3.27;1.50;;;5.00;99.90;;;;;;5058523;28;20459;-60
2023/04/03 07:46:57;;;;;;;4.53;1.20;;;5.10;99.90;;;;;;5057252;28;20443;-61
2023/04/03 07:49:25;;;;;;;7.70;2.47;;;5.40;99.90;;;;;;5058122;28;20471;-60
2023/04/03 07:51:54;;;;;;;7.50;3.73;;;5.60;99.90;;;;;;5057485;28;20525;-61
2023/04/03 07:54:22;;;;;;;3.73;1.67;;;5.70;99.90;;;;;;5057523;28;20491;-57
2023/04/03 07:56:49;;;;;;;4.93;1.20;;;6.00;99.90;;;;;;5057947;28;20427;-56
2023/04/03 07:59:16;;;;;;;3.00;1.00;;;6.20;99.90;;;;;;5057127;28;20468;-63
2023/04/03 08:01:43;;;;;;;4.20;1.20;;;6.40;99.90;;;;;;5057400;28;20459;-59
2023/04/03 08:04:12;;;;;;;2.07;0.90;;;6.60;99.90;;;;;;5057729;28;20440;-61
2023/04/03 08:06:39;;;;;;;1.87;1.10;;;6.70;99.90;;;;;;5058139;28;20435;-59
2023/04/03 08:09:08;;;;;;;1.50;1.13;;;6.70;99.90;;;;;;5057519;28;20444;-62
2023/04/03 08:11:36;;;;;;;3.20;1.20;;;6.60;99.90;;;;;;5057357;28;20515;-59
2023/04/03 08:14:03;;;;;;;2.00;0.97;;;6.60;99.90;;;;;;5057529;28;20425;-63
2023/04/03 08:16:31;;;;;;;3.20;1.20;;;6.50;99.90;;;;;;5058159;28;20487;-61
2023/04/03 08:18:59;;;;;;;4.30;1.17;;;6.40;99.90;;;;;;5057075;28;20455;-60
2023/04/03 08:21:26;;;;;;;1.30;0.90;;;6.40;99.90;;;;;;5057488;28;20448;-60
2023/04/03 08:23:53;;;;;;;2.27;1.20;;;6.40;99.90;;;;;;5058113;28;20468;-57
2023/04/03 08:26:24;;;;;;;2.53;1.00;;;6.40;99.90;;;;;;5054668;28;20452;-63
2023/04/03 08:28:51;;;;;;;2.10;1.13;;;6.30;99.90;;;;;;5037812;28;20444;-60
2023/04/03 08:31:20;;;;;;;1.87;1.10;;;6.20;99.90;;;;;;5034849;28;20572;-60
2023/04/03 08:33:48;;;;;;;1.57;1.10;;;6.20;99.90;;;;;;5037543;28;20477;-61
2023/04/03 08:36:20;;;;;;;5.17;3.40;;;6.10;99.90;;;;;;5038045;28;20449;-60
2023/04/03 08:38:48;;;;;;;4.93;1.07;;;6.10;99.90;;;;;;5037227;28;20500;-61
2023/04/03 08:41:20;;;;;;;3.67;1.50;;;6.10;99.90;;;;;;5037874;28;20465;-63
2023/04/03 08:43:59;;;;;;;1.83;1.07;;;6.10;99.90;;;;;;5037277;28;20441;-60
2023/04/03 08:46:39;;;;;;;2.40;1.10;;;6.00;99.90;;;;;;5037578;28;20460;-56
2023/04/03 08:49:16;;;;;;;8.73;1.40;;;6.00;99.90;;;;;;5037397;28;20492;-61
2023/04/03 08:51:49;;;;;;;4.50;1.80;;;5.90;99.90;;;;;;5037338;28;20520;-60
2023/04/03 08:54:32;;;;;;;2.10;0.77;;;5.80;99.90;;;;;;5038572;28;20588;-59
2023/04/03 08:57:04;;;;;;;1.40;1.03;;;5.80;99.90;;;;;;5038266;28;20449;-60
2023/04/03 08:59:35;;;;;;;3.57;1.33;;;5.80;99.60;;;;;;5038608;28;20453;-60
2023/04/03 09:02:12;;;;;;;1.93;0.97;;;5.80;99.60;;;;;;5038113;28;20504;-54
2023/04/03 09:04:39;;;;;;;2.33;1.47;;;5.90;99.90;;;;;;5046681;28;20436;-62
2023/04/03 09:07:15;;;;;;;1.93;1.10;;;5.90;99.80;;;;;;5056992;28;20507;-64
2023/04/03 09:09:43;;;;;;;2.47;1.20;;;6.40;99.50;;;;;;5056890;28;20428;-62
2023/04/03 09:12:20;;;;;;;2.00;1.40;;;6.70;98.00;;;;;;5057366;28;20480;-60
2023/04/03 09:14:58;;;;;;;6.07;1.60;;;6.80;97.80;;;;;;5057504;28;20440;-59
2023/04/03 09:17:41;;;;;;;4.17;1.80;;;6.90;97.80;;;;;;5057318;28;20470;-55
2023/04/03 09:20:19;;;;;;;2.10;1.30;;;7.00;97.60;;;;;;5057426;28;20444;-59
2023/04/03 09:22:48;;;;;;;2.63;1.10;;;7.20;96.50;;;;;;5056974;28;20436;-55
2023/04/03 09:25:17;;;;;;;3.57;1.63;;;7.80;94.80;;;;;;5056136;28;20510;-54
2023/04/03 09:27:45;;;;;;;1.83;1.17;;;9.30;92.20;;;;;;5057095;28;20452;-65
2023/04/03 09:30:16;;;;;;;3.53;1.47;;;11.00;79.90;;;;;;5052549;28;20495;-66
2023/04/03 09:32:46;;;;;;;2.50;1.30;;;12.70;66.30;;;;;;5051897;28;20459;-59
2023/04/03 09:35:21;;;;;;;5.03;2.00;;;13.20;59.40;;;;;;5055882;28;20468;-59
2023/04/03 09:37:51;;;;;;;3.03;1.70;;;12.60;56.80;;;;;;5055917;28;20429;-61
2023/04/03 09:40:38;;;;;;;3.10;1.30;;;11.90;56.20;;;;;;5056076;28;20472;-58
2023/04/03 09:43:21;;;;;;;3.93;1.30;;;10.80;56.60;;;;;;5053339;28;20444;-61
2023/04/03 09:45:53;;;;;;;2.23;1.07;;;10.00;58.70;;;;;;5055890;28;20405;-58
2023/04/03 09:48:22;;;;;;;1.97;1.43;;;9.50;61.50;;;;;;5056161;28;20408;-59
2023/04/03 09:50:59;;;;;;;2.43;1.60;;;9.10;62.70;;;;;;5055604;28;20466;-63
2023/04/03 09:53:29;;;;;;;2.27;1.20;;;8.70;64.40;;;;;;5053966;28;20462;-60
2023/04/03 09:55:57;;;;;;;2.17;1.20;;;8.40;66.40;;;;;;5055612;28;20529;-60
2023/04/03 09:58:27;;;;;;;1.77;0.97;;;8.30;66.00;;;;;;5034108;28;20495;-62
2023/04/03 10:01:00;;;;;;;2.43;1.10;;;8.20;67.80;;;;;;5042039;28;20432;-63
2023/04/03 10:03:30;;;;;;;2.77;1.33;;;8.10;69.40;;;;;;5050073;28;20500;-60
2023/04/03 10:05:57;;;;;;;3.87;1.30;;;7.90;70.30;;;;;;5055630;28;20563;-60
2023/04/03 10:08:28;;;;;;;2.20;1.00;;;7.80;71.60;;;;;;5052468;28;20467;-61
2023/04/03 10:11:12;;;;;;;1.50;1.23;;;7.60;71.20;;;;;;5055276;28;20464;-63
2023/04/03 10:13:52;;;;;;;2.20;0.97;;;7.50;74.60;;;;;;5055810;28;20448;-62
2023/04/03 10:16:27;;;;;;;3.10;1.40;;;7.80;99.90;;;;;;5053265;28;20429;-60
2023/04/03 10:19:18;;;;;;;1.43;1.10;;;9.00;99.90;;;;;;5054802;28;20456;-58
2023/04/03 10:21:49;;;;;;;3.17;1.60;;;9.50;87.30;;;;;;5034084;28;20487;-62
2023/04/03 10:24:22;;;;;;;2.17;1.63;;;9.30;78.40;;;;;;5038388;28;20181;-63
2023/04/03 10:26:57;;;;;;;2.30;1.40;;;9.10;75.60;;;;;;5055484;28;20492;-60
2023/04/03 10:29:38;;;;;;;5.00;1.77;;;8.80;76.10;;;;;;5055074;28;20452;-63
2023/04/03 10:32:28;;;;;;;3.40;1.17;;;8.60;77.80;;;;;;5054679;28;20871;-62
2023/04/03 10:34:59;;;;;;;1.60;1.50;;;8.40;77.10;;;;;;5054642;28;20436;-61
2023/04/03 10:37:36;;;;;;;3.67;1.63;;;8.30;78.00;;;;;;5055109;28;20622;-62
2023/04/03 10:40:12;;;;;;;2.67;1.00;;;8.20;78.60;;;;;;5054336;28;20442;-56
2023/04/03 10:42:47;;;;;;;2.00;1.27;;;8.10;78.90;;;;;;5053800;28;20464;-62
2023/04/03 10:45:24;;;;;;;7.97;2.40;;;8.10;80.60;;;;;;5054395;28;20456;-54
2023/04/03 10:48:02;;;;;;;7.40;2.33;;;8.10;79.40;;;;;;5054095;28;20463;-58
2023/04/03 10:50:39;;;;;;;3.23;1.60;;;8.10;79.60;;;;;;5054430;28;20463;-57
2023/04/03 10:53:14;;;;;;;5.57;2.00;;;8.00;78.30;;;;;;5054159;28;20440;-62
2023/04/03 10:55:47;;;;;;;1.50;1.30;;;7.80;77.90;;;;;;5053569;28;20471;-59
2023/04/03 10:58:22;;;;;;;2.83;1.20;;;7.70;76.90;;;;;;5054974;28;20464;-59
2023/04/03 11:00:52;;;;;;;1.30;1.07;;;7.70;79.20;;;;;;5052680;28;20463;-63
2023/04/03 11:03:30;;;;;;;1.20;1.00;;;7.70;79.60;;;;;;5051822;28;20420;-61
2023/04/03 11:06:00;;;;;;;2.40;1.27;;;7.60;80.90;;;;;;5054244;28;20482;-63
2023/04/03 11:08:34;;;;;;;1.53;1.27;;;7.60;80.80;;;;;;5054620;28;20452;-61
2023/04/03 11:11:06;;;;;;;1.90;1.07;;;7.60;80.10;;;;;;5053530;28;20491;-60
2023/04/03 11:13:38;;;;;;;1.87;1.30;;;7.60;80.50;;;;;;5054911;28;20439;-57
2023/04/03 11:16:06;;;;;;;2.07;1.47;;;7.50;80.80;;;;;;5054020;28;20429;-55
2023/04/03 11:18:40;;;;;;;2.07;1.20;;;7.50;79.70;;;;;;5054383;28;20444;-62
2023/04/03 11:21:12;;;;;;;2.23;1.03;;;7.40;80.20;;;;;;5053848;28;20425;-60
2023/04/03 11:23:43;;;;;;;2.40;1.27;;;7.30;81.30;;;;;;5054458;28;20468;-60
2023/04/03 11:26:15;;;;;;;4.70;1.60;;;7.40;81.50;;;;;;5054670;28;20420;-62
2023/04/03 11:28:43;;;;;;;1.67;1.10;;;7.50;82.70;;;;;;5054692;28;20514;-61
2023/04/03 11:31:24;;;;;;;1.27;1.13;;;7.40;81.40;;;;;;5054358;28;20455;-61
2023/04/03 11:34:04;;;;;;;4.03;1.47;;;7.40;82.70;;;;;;5052995;28;20478;-63
2023/04/03 11:36:35;;;;;;;2.00;0.97;;;7.60;83.20;;;;;;5054532;28;20425;-62
2023/04/03 11:39:17;;;;;;;4.00;2.20;;;7.70;82.70;;;;;;5054400;28;20551;-61
2023/04/03 11:41:44;;;;;;;1.97;1.50;;;7.70;83.10;;;;;;5053145;28;20428;-62
2023/04/03 11:44:36;;;;;;;3.30;1.10;;;7.80;83.70;;;;;;5054034;28;20436;-65
2023/04/03 11:47:04;;;;;;;6.20;1.57;;;7.90;83.30;;;;;;5055443;28;20432;-63
2023/04/03 11:50:01;;;;;;;5.10;1.37;;;7.80;84.30;;;;;;5057597;28;20444;-63
2023/04/03 11:52:59;;;;;;;2.30;1.23;;;7.70;84.60;;;;;;5056940;28;20486;-62
2023/04/03 11:55:52;;;;;;;2.23;1.20;;;7.70;84.70;;;;;;5051798;28;20448;-63
2023/04/03 11:58:23;;;;;;;2.00;1.13;;;7.70;85.60;;;;;;5057709;28;20451;-60
2023/04/03 12:01:02;;;;;;;2.97;1.20;;;7.80;85.50;;;;;;5058014;28;20931;-63
2023/04/03 12:03:55;;;;;;;1.40;0.93;;;7.90;86.60;;;;;;5058139;28;20432;-62
2023/04/03 12:06:50;;;;;;;2.03;0.97;;;8.00;84.60;;;;;;5057707;28;20440;-62
2023/04/03 12:09:34;;;;;;;2.30;1.40;;;7.90;83.70;;;;;;5023487;28;20471;-59
2023/04/03 12:12:22;;;;;;;2.47;1.57;;;7.80;85.40;;;;;;5058143;28;20515;-61
2023/04/03 12:14:50;;;;;;;2.90;1.10;;;7.70;88.00;;;;;;5057712;28;20474;-59
2023/04/03 12:17:24;;;;;;;4.87;1.67;;;7.80;86.90;;;;;;5057549;28;20455;-62
2023/04/03 12:19:51;;;;;;;2.37;1.30;;;7.80;87.50;;;;;;5057153;28;20459;-59
2023/04/03 12:22:22;;;;;;;2.67;1.27;;;7.90;88.10;;;;;;5057025;28;20493;-60
2023/04/03 12:24:53;;;;;;;11.93;1.57;;;8.00;86.80;;;;;;5056291;28;20464;-59
2023/04/03 12:27:28;;;;;;;1.90;1.23;;;8.00;83.90;;;;;;5057707;28;20452;-60
2023/04/03 12:30:03;;;;;;;4.20;1.03;;;8.10;83.90;;;;;;5056895;28;20472;-65
2023/04/03 12:33:11;;;;;;;4.30;1.50;;;8.00;85.40;;;;;;5057341;28;20460;-62
2023/04/03 12:35:44;;;;;;;2.90;1.30;;;8.00;85.50;;;;;;5030195;28;20476;-61
2023/04/03 12:38:41;;;;;;;10.77;4.67;;;7.90;84.80;;;;;;5057207;28;20421;-61
2023/04/03 12:41:22;;;;;;;4.50;1.60;;;7.80;84.30;;;;;;5056875;28;20452;-62
2023/04/03 12:44:04;;;;;;;1.30;1.10;;;7.80;83.50;;;;;;5057889;28;20427;-61
2023/04/03 12:46:39;;;;;;;5.00;2.90;;;7.80;84.30;;;;;;5057649;28;20436;-64
2023/04/03 12:49:31;;;;;;;5.90;2.30;;;7.80;82.60;;;;;;5058300;28;20428;-59
2023/04/03 12:51:58;;;;;;;1.90;1.53;;;8.00;81.10;;;;;;5056878;28;21141;-57
2023/04/03 12:54:31;;;;;;;3.00;1.33;;;8.10;79.30;;;;;;5057636;28;20479;-61
2023/04/03 12:57:11;;;;;;;3.57;1.07;;;8.10;79.40;;;;;;5058313;28;20436;-60
2023/04/03 12:59:41;;;;;;;1.07;0.87;;;7.90;79.40;;;;;;5057961;28;20452;-62
2023/04/03 13:02:23;;;;;;;7.70;1.50;;;7.80;79.60;;;;;;5058209;28;20463;-64
2023/04/03 13:04:51;;;;;;;3.20;1.40;;;7.70;80.50;;;;;;5056402;28;20474;-62
2023/04/03 13:07:28;;;;;;;2.20;1.30;;;7.70;82.20;;;;;;5050337;28;20449;-65
2023/04/03 13:10:15;;;;;;;2.30;1.87;;;7.80;81.80;;;;;;5044320;28;20514;-65
2023/04/03 13:12:54;;;;;;;3.43;1.87;;;7.90;82.00;;;;;;5057334;28;20488;-58
2023/04/03 13:15:24;;;;;;;1.50;1.13;;;8.00;80.70;;;;;;5056609;28;20464;-63
2023/04/03 13:17:53;;;;;;;5.77;1.33;;;8.10;80.00;;;;;;5056587;28;20470;-64
2023/04/03 13:20:24;;;;;;;4.70;1.43;;;8.10;80.00;;;;;;5053505;28;20475;-65
2023/04/03 13:22:57;;;;;;;2.20;1.17;;;8.20;80.90;;;;;;5056584;28;20444;-57
2023/04/03 13:25:28;;;;;;;4.13;1.20;;;8.20;80.90;;;;;;5054176;28;20428;-59
2023/04/03 13:27:59;;;;;;;4.20;1.03;;;8.20;81.90;;;;;;5056330;28;20448;-64
2023/04/03 13:30:29;;;;;;;1.57;1.10;;;8.20;81.50;;;;;;5050158;28;20484;-59